Time;durP1;ratioP1;P1;durP2;ratioP2;P2;SDS_P1;SDS_P2;PMS_P1;PMS_P2;Temp;Humidity;BMP_temperature;BMP_pressure;BME280_temperature;BME280_humidity;BME280_pressure;Samples;Min_cycle;Max_cycle;Signal;HPM_P1;HPM_P2
2023/05/28 00:00:06;;;;;;;4.22;0.90;;;12.20;99.90;;;;;;5026572;28;20029;-77
2023/05/28 00:02:39;;;;;;;2.45;0.80;;;12.10;99.90;;;;;;5021666;28;20038;-79
2023/05/28 00:05:05;;;;;;;2.90;0.73;;;12.00;99.90;;;;;;5023224;28;20474;-78
2023/05/28 00:07:31;;;;;;;4.65;1.17;;;11.90;99.90;;;;;;5009229;28;20094;-79
2023/05/28 00:09:57;;;;;;;2.10;0.73;;;11.90;99.90;;;;;;5008157;28;20104;-79
2023/05/28 00:12:23;;;;;;;2.25;0.70;;;11.80;99.90;;;;;;5023543;28;20060;-78
2023/05/28 00:14:50;;;;;;;2.15;0.70;;;11.90;99.90;;;;;;5025192;28;20057;-79
2023/05/28 00:17:16;;;;;;;3.08;0.73;;;11.90;99.90;;;;;;5020185;28;20382;-76
2023/05/28 00:19:43;;;;;;;2.83;1.00;;;11.90;99.90;;;;;;5023852;28;20117;-77
2023/05/28 00:22:09;;;;;;;5.32;1.40;;;11.80;99.90;;;;;;5023986;28;20048;-77
2023/05/28 00:24:35;;;;;;;6.43;1.98;;;11.90;99.90;;;;;;5023768;28;20022;-77
2023/05/28 00:27:01;;;;;;;8.52;4.13;;;12.00;99.90;;;;;;5024262;28;20029;-75
2023/05/28 00:29:27;;;;;;;10.45;5.00;;;12.10;99.90;;;;;;5024835;28;20466;-76
2023/05/28 00:31:55;;;;;;;12.27;6.93;;;12.00;99.90;;;;;;5023659;28;20044;-76
2023/05/28 00:34:24;;;;;;;10.88;4.72;;;12.00;99.90;;;;;;5030417;28;20470;-77
2023/05/28 00:36:51;;;;;;;10.15;4.43;;;11.90;99.90;;;;;;5022464;28;20025;-76
2023/05/28 00:39:17;;;;;;;10.57;5.22;;;11.90;99.90;;;;;;5022611;28;20033;-77
2023/05/28 00:41:43;;;;;;;7.47;4.55;;;11.90;99.90;;;;;;5025929;28;20110;-76
2023/05/28 00:44:09;;;;;;;7.90;3.85;;;11.80;99.90;;;;;;5032297;28;20069;-76
2023/05/28 00:46:44;;;;;;;8.65;4.53;;;11.80;99.90;;;;;;5035590;28;20115;-77
2023/05/28 00:49:11;;;;;;;5.85;3.50;;;11.60;99.90;;;;;;5043999;28;20086;-77
2023/05/28 00:51:36;;;;;;;4.85;2.78;;;11.60;99.90;;;;;;5028884;28;20066;-77
2023/05/28 00:54:05;;;;;;;5.22;2.80;;;11.60;99.90;;;;;;5016273;28;20024;-77
2023/05/28 00:56:31;;;;;;;4.78;2.40;;;11.60;99.90;;;;;;5010014;28;20026;-77
2023/05/28 00:59:00;;;;;;;4.63;2.03;;;11.60;99.90;;;;;;5039434;28;20037;-76
2023/05/28 01:01:26;;;;;;;4.15;2.10;;;11.50;99.90;;;;;;5026790;28;20029;-76
2023/05/28 01:03:52;;;;;;;3.53;1.75;;;11.50;99.90;;;;;;5045877;28;20488;-76
2023/05/28 01:06:20;;;;;;;5.00;2.03;;;11.40;99.90;;;;;;5046223;28;20033;-77
2023/05/28 01:08:48;;;;;;;4.32;1.73;;;11.40;99.90;;;;;;5045467;28;20371;-77
2023/05/28 01:11:18;;;;;;;4.68;1.98;;;11.40;99.90;;;;;;5031527;28;20051;-76
2023/05/28 01:13:45;;;;;;;5.00;1.98;;;11.40;99.90;;;;;;5005150;28;20036;-76
2023/05/28 01:16:11;;;;;;;5.65;1.27;;;11.40;99.90;;;;;;5032226;28;20048;-77
2023/05/28 01:18:39;;;;;;;6.00;2.40;;;11.30;99.90;;;;;;5045841;28;20485;-77
2023/05/28 01:21:06;;;;;;;4.05;1.67;;;11.30;99.90;;;;;;5010944;28;20110;-77
2023/05/28 01:23:47;;;;;;;6.50;2.28;;;11.30;99.90;;;;;;5023068;28;20032;-77
2023/05/28 01:26:16;;;;;;;8.05;3.58;;;11.50;99.90;;;;;;5036834;28;20032;-76
2023/05/28 01:28:49;;;;;;;10.73;4.17;;;11.50;99.90;;;;;;5031564;28;20049;-78
2023/05/28 01:31:16;;;;;;;6.05;3.45;;;11.40;99.90;;;;;;5043223;28;20466;-77
2023/05/28 01:33:43;;;;;;;8.43;3.63;;;11.40;99.90;;;;;;5045581;28;20338;-76
2023/05/28 01:36:25;;;;;;;8.27;3.08;;;11.30;99.90;;;;;;5022446;28;20026;-78
2023/05/28 01:38:52;;;;;;;10.43;3.65;;;11.30;99.90;;;;;;5025923;28;20195;-76
2023/05/28 01:41:20;;;;;;;7.57;2.75;;;11.30;99.90;;;;;;5012384;28;20505;-77
2023/05/28 01:43:47;;;;;;;7.18;2.97;;;11.30;99.90;;;;;;5025910;28;20384;-79
2023/05/28 01:46:13;;;;;;;5.18;2.63;;;11.30;99.90;;;;;;5026944;28;20021;-77
2023/05/28 01:48:40;;;;;;;6.63;2.40;;;11.20;99.90;;;;;;5045471;28;20032;-79
2023/05/28 01:51:06;;;;;;;4.57;1.77;;;11.20;99.90;;;;;;5030506;28;20027;-79
2023/05/28 01:53:32;;;;;;;4.70;1.42;;;11.20;99.90;;;;;;5028973;28;20017;-79
2023/05/28 01:55:59;;;;;;;5.53;1.98;;;11.20;99.90;;;;;;5026502;28;20061;-79
2023/05/28 01:58:25;;;;;;;7.05;1.65;;;11.30;99.90;;;;;;5013252;28;20504;-79
2023/05/28 02:01:20;;;;;;;4.82;2.17;;;11.20;99.90;;;;;;5028506;28;20056;-79
2023/05/28 02:03:46;;;;;;;4.95;1.95;;;11.30;99.90;;;;;;5045259;28;20033;-78
2023/05/28 02:06:12;;;;;;;4.43;1.35;;;11.30;99.90;;;;;;5044767;28;20029;-78
2023/05/28 02:08:38;;;;;;;4.32;1.90;;;11.30;99.90;;;;;;5029753;28;20040;-77
2023/05/28 02:11:03;;;;;;;5.82;1.77;;;11.20;99.90;;;;;;5027962;28;20036;-77
2023/05/28 02:13:30;;;;;;;3.05;1.25;;;11.20;99.90;;;;;;5031853;28;20027;-78
2023/05/28 02:15:56;;;;;;;6.30;1.65;;;11.20;99.90;;;;;;5032253;28;20298;-79
2023/05/28 02:18:21;;;;;;;4.60;1.08;;;11.20;99.90;;;;;;5045470;28;20315;-77
2023/05/28 02:20:47;;;;;;;4.20;1.38;;;11.20;99.90;;;;;;5022053;28;20116;-78
2023/05/28 02:23:15;;;;;;;1.98;0.90;;;11.10;99.90;;;;;;5025614;28;20063;-79
2023/05/28 02:25:41;;;;;;;6.95;1.60;;;11.00;99.90;;;;;;5042691;28;20029;-78
2023/05/28 02:28:06;;;;;;;5.25;1.35;;;11.00;99.90;;;;;;5029786;28;20029;-78
2023/05/28 02:30:32;;;;;;;5.68;2.35;;;11.00;99.90;;;;;;5030664;28;20381;-76
2023/05/28 02:32:58;;;;;;;3.97;1.42;;;11.00;99.90;;;;;;5045441;28;20029;-79
2023/05/28 02:35:23;;;;;;;6.40;1.50;;;11.10;99.90;;;;;;5044994;28;20018;-79
2023/05/28 02:37:50;;;;;;;7.25;1.92;;;10.90;99.90;;;;;;5046225;28;20029;-78
2023/05/28 02:40:15;;;;;;;5.70;1.67;;;11.00;99.90;;;;;;5014663;28;20021;-78
2023/05/28 02:42:41;;;;;;;5.35;1.70;;;11.00;99.90;;;;;;5037194;28;20079;-78
2023/05/28 02:45:07;;;;;;;6.18;1.52;;;10.90;99.90;;;;;;5030108;28;20033;-78
2023/05/28 02:47:33;;;;;;;4.80;1.70;;;10.90;99.90;;;;;;5025628;28;20029;-78
2023/05/28 02:50:00;;;;;;;8.32;2.22;;;10.80;99.90;;;;;;5014728;28;20121;-78
2023/05/28 02:52:27;;;;;;;4.53;1.67;;;10.70;99.90;;;;;;5024169;28;20470;-76
2023/05/28 02:54:52;;;;;;;6.32;1.63;;;10.70;99.90;;;;;;5029738;28;20197;-78
2023/05/28 02:57:18;;;;;;;7.88;2.50;;;10.70;99.90;;;;;;5025885;28;20108;-77
2023/05/28 02:59:44;;;;;;;6.50;2.03;;;10.70;99.90;;;;;;5019699;28;20473;-78
2023/05/28 03:02:11;;;;;;;7.53;1.80;;;10.70;99.90;;;;;;5013417;28;20028;-78
2023/05/28 03:04:37;;;;;;;6.90;2.17;;;10.70;99.90;;;;;;5029496;28;20082;-76
2023/05/28 03:07:03;;;;;;;4.78;1.60;;;10.60;99.90;;;;;;5037503;28;20111;-77
2023/05/28 03:09:29;;;;;;;5.53;1.48;;;10.60;99.90;;;;;;5024951;28;20393;-76
2023/05/28 03:11:54;;;;;;;4.80;1.48;;;10.60;99.90;;;;;;5024700;28;20032;-77
2023/05/28 03:14:20;;;;;;;5.03;1.50;;;10.60;99.90;;;;;;5009974;28;20073;-77
2023/05/28 03:16:46;;;;;;;5.47;1.60;;;10.60;99.90;;;;;;5013379;28;20120;-77
2023/05/28 03:19:20;;;;;;;6.25;1.88;;;10.60;99.90;;;;;;5001929;28;20021;-79
2023/05/28 03:21:46;;;;;;;4.30;1.60;;;10.60;99.90;;;;;;5019164;28;20402;-80
2023/05/28 03:24:13;;;;;;;8.25;2.40;;;10.60;99.90;;;;;;5004095;28;20041;-79
2023/05/28 03:26:46;;;;;;;5.95;2.22;;;10.60;99.90;;;;;;5004458;28;20708;-79
2023/05/28 03:29:15;;;;;;;6.50;2.47;;;10.50;99.90;;;;;;5006437;28;20025;-79
2023/05/28 03:31:53;;;;;;;3.67;1.33;;;10.50;99.90;;;;;;4989530;28;20141;-79
2023/05/28 03:34:21;;;;;;;4.93;1.38;;;10.50;99.90;;;;;;4990223;28;20022;-78
2023/05/28 03:36:47;;;;;;;5.50;1.65;;;10.50;99.90;;;;;;5004053;28;20037;-80
2023/05/28 03:39:12;;;;;;;5.28;1.52;;;10.40;99.90;;;;;;4990553;28;20030;-79
2023/05/28 03:41:39;;;;;;;6.65;1.55;;;10.50;99.90;;;;;;5006300;28;20038;-79
2023/05/28 03:44:07;;;;;;;6.20;2.00;;;10.50;99.90;;;;;;4988946;28;20130;-78
2023/05/28 03:46:34;;;;;;;6.03;2.03;;;10.50;99.90;;;;;;4990495;28;20084;-79
2023/05/28 03:48:59;;;;;;;4.20;1.08;;;10.50;99.90;;;;;;5003999;28;20033;-78
2023/05/28 03:51:26;;;;;;;4.68;1.65;;;10.50;99.90;;;;;;5001408;28;20054;-79
2023/05/28 03:53:52;;;;;;;5.88;1.30;;;10.50;99.90;;;;;;5002852;28;20048;-78
2023/05/28 03:56:19;;;;;;;5.10;1.67;;;10.50;99.90;;;;;;4989468;28;20033;-77
2023/05/28 03:58:47;;;;;;;4.18;1.58;;;10.50;99.90;;;;;;5014714;28;20398;-78
2023/05/28 04:01:12;;;;;;;7.00;2.17;;;10.50;99.90;;;;;;5005606;28;20038;-78
2023/05/28 04:03:38;;;;;;;11.35;1.73;;;10.50;99.90;;;;;;5006339;28;20036;-78
2023/05/28 04:06:05;;;;;;;6.43;1.80;;;10.60;99.90;;;;;;5005134;28;20025;-78
2023/05/28 04:08:31;;;;;;;6.25;2.60;;;10.60;99.90;;;;;;4989897;28;20025;-77
2023/05/28 04:10:56;;;;;;;6.93;2.20;;;10.60;99.90;;;;;;4988438;28;20033;-78
2023/05/28 04:13:22;;;;;;;6.78;2.15;;;10.70;99.90;;;;;;4989874;28;20038;-78
2023/05/28 04:15:48;;;;;;;4.22;1.98;;;10.60;99.90;;;;;;4987540;28;20482;-79
2023/05/28 04:18:13;;;;;;;7.80;2.13;;;10.70;99.90;;;;;;5005429;28;20113;-78
2023/05/28 04:20:41;;;;;;;6.15;2.50;;;10.70;99.90;;;;;;4987094;28;20393;-78
2023/05/28 04:23:08;;;;;;;9.82;2.20;;;10.80;99.90;;;;;;5007334;28;20060;-78
2023/05/28 04:25:33;;;;;;;9.55;2.80;;;10.90;99.90;;;;;;5007289;28;20029;-78
2023/05/28 04:28:00;;;;;;;7.90;2.72;;;10.90;99.90;;;;;;5008820;28;20026;-77
2023/05/28 04:30:26;;;;;;;5.93;2.88;;;11.00;99.90;;;;;;4993764;28;20037;-76
2023/05/28 04:32:52;;;;;;;9.88;3.33;;;11.10;99.90;;;;;;5007434;28;20034;-76
2023/05/28 04:35:19;;;;;;;7.30;2.33;;;11.20;99.90;;;;;;4993470;28;20030;-76
2023/05/28 04:37:45;;;;;;;6.72;1.95;;;11.40;99.90;;;;;;5006020;28;20022;-77
2023/05/28 04:40:14;;;;;;;8.13;1.95;;;11.40;99.90;;;;;;4991091;28;20095;-76
2023/05/28 04:42:40;;;;;;;6.53;1.63;;;11.60;99.90;;;;;;5017667;28;20034;-77
2023/05/28 04:45:10;;;;;;;5.40;2.22;;;11.70;99.90;;;;;;4989454;28;20022;-78
2023/05/28 04:47:37;;;;;;;10.73;3.83;;;11.80;99.90;;;;;;4992023;28;20022;-76
2023/05/28 04:50:04;;;;;;;8.30;3.85;;;11.80;99.90;;;;;;5008617;28;20065;-76
2023/05/28 04:52:35;;;;;;;9.52;3.45;;;11.90;99.90;;;;;;5004169;28;20144;-77
2023/05/28 04:55:05;;;;;;;7.57;3.78;;;11.90;99.90;;;;;;5004456;28;20053;-76
2023/05/28 04:57:32;;;;;;;6.13;2.95;;;12.00;99.90;;;;;;4992432;28;20551;-76
2023/05/28 05:00:00;;;;;;;8.07;3.60;;;12.10;99.90;;;;;;4993470;28;20038;-80
2023/05/28 05:02:25;;;;;;;7.32;3.60;;;12.20;99.90;;;;;;4989473;28;20045;-80
2023/05/28 05:04:51;;;;;;;7.05;3.55;;;12.40;99.90;;;;;;4992709;28;20022;-79
2023/05/28 05:07:18;;;;;;;6.15;2.28;;;12.40;99.90;;;;;;5008559;28;20034;-79
2023/05/28 05:09:45;;;;;;;6.90;2.45;;;12.70;99.90;;;;;;4991137;28;20022;-80
2023/05/28 05:12:11;;;;;;;11.23;5.15;;;12.80;99.90;;;;;;5000263;28;20037;-80
2023/05/28 05:14:37;;;;;;;11.40;4.18;;;12.60;99.90;;;;;;4991347;28;20042;-80
2023/05/28 05:17:03;;;;;;;12.05;3.67;;;12.70;99.90;;;;;;5005660;28;20026;-79
2023/05/28 05:19:29;;;;;;;9.13;3.97;;;12.80;99.90;;;;;;5007713;28;20027;-79
2023/05/28 05:21:55;;;;;;;8.18;3.85;;;12.80;99.90;;;;;;5004677;28;20031;-80
2023/05/28 05:24:21;;;;;;;11.35;3.28;;;12.90;99.90;;;;;;5009044;28;20022;-77
2023/05/28 05:26:47;;;;;;;11.07;3.80;;;13.10;99.90;;;;;;5008284;28;20030;-77
2023/05/28 05:29:13;;;;;;;6.82;2.78;;;13.20;99.90;;;;;;5008927;28;20027;-79
2023/05/28 05:31:39;;;;;;;9.98;3.58;;;13.10;99.90;;;;;;5009179;28;20163;-78
2023/05/28 05:34:07;;;;;;;8.82;3.30;;;12.90;99.90;;;;;;4989262;28;20092;-79
2023/05/28 05:36:51;;;;;;;5.40;2.75;;;12.90;99.90;;;;;;5005327;28;20037;-79
2023/05/28 05:39:20;;;;;;;8.52;2.65;;;12.90;99.90;;;;;;5009312;28;20466;-78
2023/05/28 05:42:05;;;;;;;10.45;3.78;;;13.00;99.90;;;;;;5003698;28;20046;-80
2023/05/28 05:44:37;;;;;;;5.80;2.20;;;13.40;99.90;;;;;;5007789;28;20018;-79
2023/05/28 05:47:03;;;;;;;6.25;2.10;;;13.60;99.90;;;;;;5007121;28;20433;-79
2023/05/28 05:49:29;;;;;;;7.22;3.13;;;13.60;99.90;;;;;;4990968;28;20065;-80
2023/05/28 05:51:55;;;;;;;9.20;3.47;;;13.50;99.90;;;;;;5009008;28;20060;-78
2023/05/28 05:54:20;;;;;;;10.23;3.92;;;13.60;99.90;;;;;;4990562;28;20040;-76
2023/05/28 05:56:47;;;;;;;11.38;4.72;;;13.80;99.90;;;;;;4989007;28;20041;-77
2023/05/28 05:59:12;;;;;;;10.38;5.07;;;13.80;99.90;;;;;;4990700;28;20090;-76
2023/05/28 06:01:38;;;;;;;12.48;4.75;;;13.90;99.90;;;;;;5012632;28;20038;-76
2023/05/28 06:04:04;;;;;;;8.93;4.13;;;14.00;99.90;;;;;;5006876;28;20033;-77
2023/05/28 06:06:48;;;;;;;7.43;2.83;;;14.00;99.90;;;;;;5002343;28;20128;-76
2023/05/28 06:09:31;;;;;;;9.23;4.15;;;14.40;99.90;;;;;;5008306;28;20113;-76
2023/05/28 06:12:04;;;;;;;8.82;4.05;;;14.50;99.90;;;;;;5003067;28;20157;-76
2023/05/28 06:14:30;;;;;;;6.50;3.03;;;14.50;99.90;;;;;;4984182;28;20380;-76
2023/05/28 06:16:55;;;;;;;8.75;2.97;;;14.90;99.90;;;;;;5006417;28;20076;-76
2023/05/28 06:19:22;;;;;;;8.23;3.10;;;15.50;99.90;;;;;;5005548;28;20502;-76
2023/05/28 06:21:48;;;;;;;8.18;3.03;;;15.50;99.90;;;;;;5007095;28;20041;-76
2023/05/28 06:24:14;;;;;;;7.13;2.45;;;15.80;99.90;;;;;;5006401;28;20064;-76
2023/05/28 06:26:46;;;;;;;7.30;3.13;;;16.00;99.90;;;;;;5004404;28;20391;-76
2023/05/28 06:29:12;;;;;;;7.10;3.40;;;16.00;99.90;;;;;;5001725;28;20049;-77
2023/05/28 06:31:40;;;;;;;9.63;2.38;;;16.00;99.90;;;;;;5006956;28;20061;-77
2023/05/28 06:34:05;;;;;;;10.13;3.50;;;16.20;99.90;;;;;;5007083;28;20022;-76
2023/05/28 06:36:32;;;;;;;8.65;3.92;;;15.90;99.90;;;;;;5003097;28;20037;-77
2023/05/28 06:38:58;;;;;;;6.20;2.72;;;15.90;99.90;;;;;;5006612;28;20030;-77
2023/05/28 06:41:25;;;;;;;8.40;3.42;;;16.60;99.90;;;;;;5019128;28;20042;-76
2023/05/28 06:43:52;;;;;;;12.75;4.45;;;16.70;99.90;;;;;;5006997;28;20026;-79
2023/05/28 06:46:33;;;;;;;5.68;3.67;;;16.40;99.90;;;;;;4987662;28;20045;-76
2023/05/28 06:48:58;;;;;;;7.40;2.47;;;16.80;99.90;;;;;;4990128;28;20030;-77
2023/05/28 06:51:24;;;;;;;4.53;2.33;;;17.00;99.90;;;;;;5001643;28;20554;-76
2023/05/28 06:53:50;;;;;;;4.10;1.95;;;17.10;99.90;;;;;;4989437;28;20018;-77
2023/05/28 06:56:22;;;;;;;3.72;1.30;;;17.00;99.90;;;;;;4990453;28;20080;-76
2023/05/28 06:59:06;;;;;;;15.38;5.40;;;17.00;99.90;;;;;;5003969;28;20036;-77
2023/05/28 07:01:47;;;;;;;7.85;3.20;;;16.60;99.90;;;;;;4991393;28;20045;-75
2023/05/28 07:04:32;;;;;;;11.88;4.78;;;16.40;99.90;;;;;;5006111;28;20029;-75
2023/05/28 07:07:05;;;;;;;11.05;3.97;;;16.10;99.90;;;;;;5005086;28;20026;-75
2023/05/28 07:09:31;;;;;;;7.88;3.42;;;16.00;99.90;;;;;;5001160;28;20382;-75
2023/05/28 07:11:57;;;;;;;11.07;4.38;;;16.00;99.90;;;;;;5020716;28;20034;-76
2023/05/28 07:14:23;;;;;;;10.40;5.10;;;15.70;99.90;;;;;;4990651;28;20092;-76
2023/05/28 07:16:49;;;;;;;7.10;2.95;;;15.60;99.90;;;;;;5001180;28;20018;-75
2023/05/28 07:19:15;;;;;;;8.07;4.22;;;16.00;99.90;;;;;;4999141;28;20033;-76
2023/05/28 07:21:41;;;;;;;6.75;3.00;;;15.90;99.90;;;;;;4989287;28;20398;-75
2023/05/28 07:24:07;;;;;;;7.50;2.17;;;15.90;99.90;;;;;;5002102;28;20033;-76
2023/05/28 07:26:34;;;;;;;6.57;3.42;;;16.10;99.90;;;;;;5002259;28;20504;-75
2023/05/28 07:29:00;;;;;;;8.57;3.65;;;15.80;99.90;;;;;;5019450;28;20030;-75
2023/05/28 07:31:28;;;;;;;5.30;2.85;;;16.10;99.90;;;;;;5020795;28;20061;-76
2023/05/28 07:33:54;;;;;;;11.38;3.90;;;16.40;99.90;;;;;;5007149;28;20022;-77
2023/05/28 07:36:21;;;;;;;8.15;3.38;;;16.40;99.90;;;;;;5011730;28;20030;-76
2023/05/28 07:38:47;;;;;;;8.98;3.25;;;16.80;99.90;;;;;;5016407;28;20144;-76
2023/05/28 07:41:13;;;;;;;10.82;3.80;;;17.20;99.90;;;;;;4988136;28;20060;-76
2023/05/28 07:43:43;;;;;;;13.35;4.32;;;17.60;99.90;;;;;;5011093;28;20030;-75
2023/05/28 07:46:20;;;;;;;12.52;4.88;;;17.80;99.90;;;;;;5006727;28;20037;-75
2023/05/28 07:48:49;;;;;;;7.75;3.25;;;17.60;99.90;;;;;;5006098;28;20454;-76
2023/05/28 07:51:26;;;;;;;11.27;4.28;;;17.80;99.90;;;;;;5003492;28;20026;-76
2023/05/28 07:54:02;;;;;;;8.55;4.30;;;17.70;99.90;;;;;;5001495;28;20123;-76
2023/05/28 07:56:28;;;;;;;8.18;2.70;;;18.10;99.90;;;;;;5003619;28;20022;-76
2023/05/28 07:58:55;;;;;;;9.18;3.40;;;18.60;99.90;;;;;;5017765;28;20029;-76
2023/05/28 08:01:23;;;;;;;6.53;2.55;;;18.70;99.90;;;;;;5002523;28;20441;-76
2023/05/28 08:03:51;;;;;;;5.25;2.65;;;18.80;99.90;;;;;;5005380;28;20030;-76
2023/05/28 08:06:20;;;;;;;9.07;3.60;;;19.20;99.90;;;;;;5017087;28;20033;-76
2023/05/28 08:08:46;;;;;;;12.43;5.07;;;18.60;99.90;;;;;;5012962;28;20037;-76
2023/05/28 08:11:13;;;;;;;10.02;3.50;;;18.30;99.90;;;;;;5018227;28;20030;-76
2023/05/28 08:13:42;;;;;;;6.75;2.22;;;19.00;99.90;;;;;;4999849;28;20042;-78
2023/05/28 08:16:12;;;;;;;;;;;19.60;99.90;;;;;;4978634;28;20405;-76
2023/05/28 08:18:57;;;;;;;7.20;2.53;;;19.60;99.90;;;;;;5002442;28;19952;-76
2023/05/28 08:21:22;;;;;;;6.57;2.42;;;19.90;99.90;;;;;;5004098;28;20398;-76
2023/05/28 08:23:48;;;;;;;7.57;2.80;;;20.40;99.90;;;;;;5003920;28;20030;-77
2023/05/28 08:26:14;;;;;;;7.07;3.15;;;20.10;99.90;;;;;;5019806;28;20100;-78
2023/05/28 08:28:39;;;;;;;8.07;2.65;;;20.20;99.90;;;;;;5004176;28;20886;-77
2023/05/28 08:31:05;;;;;;;7.45;1.50;;;20.50;99.90;;;;;;4987192;28;20057;-77
2023/05/28 08:33:50;;;;;;;8.13;2.63;;;20.40;99.90;;;;;;4999061;28;20119;-77
2023/05/28 08:36:16;;;;;;;5.05;1.70;;;20.50;99.90;;;;;;5017608;28;20068;-76
2023/05/28 08:38:43;;;;;;;4.95;1.88;;;20.70;99.90;;;;;;5005384;28;20132;-77
2023/05/28 08:41:10;;;;;;;5.57;1.45;;;20.80;99.90;;;;;;5006008;28;20125;-77
2023/05/28 08:43:35;;;;;;;4.78;1.65;;;20.90;99.90;;;;;;4994349;28;20034;-78
2023/05/28 08:46:01;;;;;;;5.60;1.70;;;20.50;99.90;;;;;;5001824;28;20045;-77
2023/05/28 08:48:35;;;;;;;6.45;2.10;;;20.70;99.90;;;;;;4990259;28;20031;-77
2023/05/28 08:51:02;;;;;;;4.32;1.30;;;21.00;99.90;;;;;;5005988;28;20026;-78
2023/05/28 08:53:47;;;;;;;4.53;1.30;;;21.40;99.90;;;;;;5004079;28;20203;-77
2023/05/28 08:56:17;;;;;;;7.32;2.03;;;21.20;99.90;;;;;;5006164;28;20278;-77
2023/05/28 08:58:44;;;;;;;6.03;2.17;;;20.80;99.90;;;;;;5001082;28;20108;-78
2023/05/28 09:01:10;;;;;;;5.82;2.33;;;20.80;99.90;;;;;;5009496;28;20040;-77
2023/05/28 09:04:00;;;;;;;7.05;2.15;;;20.80;99.90;;;;;;5001972;28;20186;-78
2023/05/28 09:06:38;;;;;;;8.60;1.67;;;20.80;99.90;;;;;;5005117;28;20092;-78
2023/05/28 09:09:07;;;;;;;5.07;1.42;;;21.00;99.90;;;;;;5020046;28;20030;-77
2023/05/28 09:11:41;;;;;;;5.35;1.30;;;21.20;99.90;;;;;;5003584;28;20030;-77
2023/05/28 09:14:11;;;;;;;6.03;1.27;;;21.20;99.90;;;;;;5004045;28;20053;-77
2023/05/28 09:16:41;;;;;;;4.93;1.90;;;21.20;99.90;;;;;;5017632;28;20030;-77
2023/05/28 09:19:09;;;;;;;5.07;1.10;;;21.30;99.90;;;;;;4991028;28;20081;-78
2023/05/28 09:21:37;;;;;;;4.35;0.90;;;21.30;99.90;;;;;;5007933;28;20045;-78
2023/05/28 09:24:06;;;;;;;8.48;1.50;;;21.10;99.90;;;;;;4990591;28;20026;-78
2023/05/28 09:26:55;;;;;;;3.72;1.33;;;21.10;99.90;;;;;;4995371;28;20030;-77
2023/05/28 09:29:26;;;;;;;3.40;0.80;;;21.40;99.90;;;;;;5014178;28;20057;-78
2023/05/28 09:32:00;;;;;;;4.47;0.90;;;21.60;99.90;;;;;;5007607;28;20108;-78
2023/05/28 09:34:30;;;;;;;5.75;1.17;;;21.80;99.90;;;;;;5015776;28;20025;-77
2023/05/28 09:37:03;;;;;;;4.80;0.98;;;22.10;99.90;;;;;;5007061;28;20560;-78
2023/05/28 09:39:30;;;;;;;3.38;0.90;;;22.40;99.90;;;;;;4989940;28;20030;-78
2023/05/28 09:42:03;;;;;;;3.10;0.80;;;22.80;99.90;;;;;;5008774;28;20030;-77
2023/05/28 09:44:33;;;;;;;3.63;1.00;;;22.90;99.90;;;;;;4987275;28;20038;-77
2023/05/28 09:46:59;;;;;;;2.50;0.80;;;22.90;99.90;;;;;;5021929;28;20038;-78
2023/05/28 09:49:29;;;;;;;4.10;0.70;;;23.10;99.90;;;;;;5007170;28;20138;-78
2023/05/28 09:51:58;;;;;;;5.80;1.27;;;23.50;99.90;;;;;;4985632;28;20037;-79
2023/05/28 09:54:28;;;;;;;2.45;0.60;;;23.30;99.90;;;;;;5006275;28;20466;-77
2023/05/28 09:56:57;;;;;;;3.40;0.90;;;23.50;99.90;;;;;;5007710;28;20489;-78
2023/05/28 09:59:25;;;;;;;4.45;1.00;;;23.30;99.90;;;;;;5007818;28;20507;-79
2023/05/28 10:02:13;;;;;;;4.50;0.88;;;23.30;99.90;;;;;;5004179;28;20037;-79
2023/05/28 10:04:40;;;;;;;4.28;0.80;;;23.40;99.90;;;;;;5014279;28;20034;-79
2023/05/28 10:07:09;;;;;;;7.80;1.08;;;23.00;99.90;;;;;;5004090;28;20034;-78
2023/05/28 10:09:39;;;;;;;3.50;0.80;;;22.90;99.90;;;;;;5007967;28;20080;-78
2023/05/28 10:12:16;;;;;;;3.33;0.88;;;23.10;99.90;;;;;;5003860;28;20047;-78
2023/05/28 10:14:43;;;;;;;2.90;0.63;;;23.20;99.90;;;;;;4988998;28;20042;-78
2023/05/28 10:17:09;;;;;;;2.92;0.77;;;23.60;99.90;;;;;;5005800;28;20466;-79
2023/05/28 10:19:36;;;;;;;3.58;0.93;;;23.80;99.90;;;;;;5004704;28;20050;-78
2023/05/28 10:22:02;;;;;;;3.80;0.90;;;23.80;99.90;;;;;;4990385;28;20380;-78
2023/05/28 10:24:28;;;;;;;4.00;1.00;;;23.90;99.90;;;;;;4990110;28;20019;-78
2023/05/28 10:26:54;;;;;;;3.55;0.70;;;24.10;99.90;;;;;;5008383;28;20041;-79
2023/05/28 10:29:23;;;;;;;3.90;0.70;;;24.00;99.90;;;;;;4989289;28;20493;-79
2023/05/28 10:32:02;;;;;;;2.70;0.60;;;24.20;99.90;;;;;;4987915;28;20044;-79
2023/05/28 10:34:34;;;;;;;2.47;0.60;;;24.10;99.90;;;;;;4988761;28;20037;-79
2023/05/28 10:37:05;;;;;;;2.38;0.70;;;24.00;99.90;;;;;;4989526;28;20125;-79
2023/05/28 10:39:40;;;;;;;3.55;0.98;;;24.10;99.90;;;;;;4990076;28;20026;-79
2023/05/28 10:42:08;;;;;;;2.38;0.50;;;23.80;99.90;;;;;;5004462;28;20033;-79
2023/05/28 10:44:51;;;;;;;3.38;0.95;;;24.00;99.90;;;;;;4988105;28;20113;-80
2023/05/28 10:47:18;;;;;;;3.38;0.82;;;23.30;99.90;;;;;;5015505;28;20154;-79
2023/05/28 10:50:08;;;;;;;3.03;0.80;;;23.80;99.90;;;;;;5008146;28;20243;-80
2023/05/28 10:52:37;;;;;;;2.45;0.60;;;24.20;99.90;;;;;;4979906;28;20054;-81
2023/05/28 10:55:04;;;;;;;6.15;0.98;;;24.50;99.90;;;;;;5006523;28;20030;-80
2023/05/28 10:57:47;;;;;;;3.67;0.95;;;24.10;99.90;;;;;;5016697;28;20031;-80
2023/05/28 11:00:23;;;;;;;3.85;0.90;;;24.20;99.90;;;;;;5002870;28;20117;-80
2023/05/28 11:02:52;;;;;;;3.95;0.80;;;24.10;99.90;;;;;;5002548;28;20085;-80
2023/05/28 11:05:24;;;;;;;4.05;0.80;;;24.30;99.90;;;;;;5019462;28;20030;-80
2023/05/28 11:07:50;;;;;;;4.45;1.10;;;24.00;99.90;;;;;;4989634;28;20108;-80
2023/05/28 11:10:16;;;;;;;3.45;1.05;;;23.90;99.90;;;;;;5004751;28;20042;-79
2023/05/28 11:12:43;;;;;;;3.17;0.80;;;24.30;99.90;;;;;;5002369;28;20030;-81
2023/05/28 11:15:10;;;;;;;3.13;0.60;;;24.00;99.90;;;;;;5004643;28;20483;-82
2023/05/28 11:21:26;;;;;;;;;;;24.10;99.90;;;;;;4959637;28;20602;-81
2023/05/28 11:24:04;;;;;;;3.42;0.73;;;24.20;99.90;;;;;;4948839;28;19910;-81
2023/05/28 11:26:32;;;;;;;2.60;0.60;;;23.90;99.90;;;;;;4934413;28;20373;-82
2023/05/28 11:28:58;;;;;;;2.22;0.60;;;24.30;99.90;;;;;;4950599;28;20031;-81
2023/05/28 11:31:23;;;;;;;4.28;0.70;;;24.10;99.90;;;;;;4948310;28;20286;-80
2023/05/28 11:33:49;;;;;;;3.88;0.93;;;23.90;99.90;;;;;;4963504;28;20141;-81
2023/05/28 11:36:15;;;;;;;5.15;1.00;;;23.80;99.90;;;;;;4934190;28;20037;-82
2023/05/28 11:38:41;;;;;;;2.78;0.80;;;24.10;99.90;;;;;;4948996;28;20047;-81
2023/05/28 11:41:06;;;;;;;4.22;0.60;;;24.40;99.90;;;;;;4933740;28;20089;-81
2023/05/28 11:43:32;;;;;;;3.30;0.68;;;24.70;99.90;;;;;;4949303;28;20055;-80
2023/05/28 11:45:59;;;;;;;3.70;0.85;;;24.50;99.90;;;;;;4932808;28;20035;-81
2023/05/28 11:48:28;;;;;;;2.63;0.57;;;24.40;99.90;;;;;;4931697;28;20037;-80
2023/05/28 11:51:00;;;;;;;3.37;0.73;;;24.50;99.90;;;;;;4949587;28;20063;-80
2023/05/28 11:53:42;;;;;;;2.75;0.60;;;24.20;99.90;;;;;;4934306;28;20469;-81
2023/05/28 11:56:09;;;;;;;1.98;0.50;;;24.20;99.90;;;;;;4934555;28;20100;-79
2023/05/28 11:58:41;;;;;;;2.50;0.50;;;24.60;99.90;;;;;;4985955;28;20074;-81
2023/05/28 12:01:07;;;;;;;3.63;0.65;;;24.20;99.90;;;;;;5001785;28;20046;-80
2023/05/28 12:03:34;;;;;;;3.13;0.57;;;24.30;99.90;;;;;;4986458;28;20586;-80
2023/05/28 12:06:00;;;;;;;3.40;0.60;;;24.10;99.90;;;;;;5001214;28;20078;-80
2023/05/28 12:08:29;;;;;;;2.22;0.52;;;23.90;99.90;;;;;;4986120;28;20378;-80
2023/05/28 12:11:02;;;;;;;2.97;0.60;;;24.20;99.90;;;;;;4986461;28;20065;-80
2023/05/28 12:13:33;;;;;;;2.88;0.63;;;24.40;99.90;;;;;;5001067;28;20042;-81
2023/05/28 12:16:10;;;;;;;2.35;0.50;;;24.50;99.90;;;;;;4999371;28;20034;-80
2023/05/28 12:18:41;;;;;;;2.30;0.50;;;24.90;99.90;;;;;;5009835;28;20033;-79
2023/05/28 12:21:18;;;;;;;4.90;0.80;;;24.80;99.90;;;;;;5004721;28;20481;-80
2023/05/28 12:23:44;;;;;;;4.47;0.80;;;24.40;99.90;;;;;;5002727;28;20026;-80
2023/05/28 12:26:13;;;;;;;5.65;1.30;;;23.80;99.90;;;;;;5003226;28;20029;-80
2023/05/28 12:28:40;;;;;;;3.42;0.98;;;24.00;99.90;;;;;;5002586;28;20034;-80
2023/05/28 12:31:07;;;;;;;6.53;1.10;;;24.00;99.90;;;;;;5001506;28;20671;-80
2023/05/28 12:33:33;;;;;;;3.83;0.60;;;23.80;99.90;;;;;;5005363;28;20026;-79
2023/05/28 12:35:59;;;;;;;5.10;1.00;;;23.80;99.90;;;;;;5003158;28;20037;-79
2023/05/28 12:38:26;;;;;;;2.63;0.75;;;23.60;99.90;;;;;;5003258;28;20030;-80
2023/05/28 12:40:52;;;;;;;2.60;0.65;;;23.90;99.90;;;;;;5001505;28;20124;-79
2023/05/28 12:43:18;;;;;;;4.15;0.70;;;23.80;99.90;;;;;;5005975;28;20029;-80
2023/05/28 12:45:44;;;;;;;3.00;0.43;;;23.80;99.90;;;;;;5010273;28;20397;-80
2023/05/28 12:48:10;;;;;;;3.42;0.82;;;23.90;99.90;;;;;;5009150;28;20034;-80
2023/05/28 12:50:36;;;;;;;2.83;0.90;;;23.50;99.90;;;;;;5008718;28;20026;-80
2023/05/28 12:53:04;;;;;;;3.22;0.80;;;23.80;99.90;;;;;;5009512;28;20528;-80
2023/05/28 12:55:31;;;;;;;5.38;0.90;;;23.70;99.90;;;;;;5001492;28;20109;-79